KLWM

Lawrence Municipal Airport

Lawrence, Massachusetts, USA
METAR KLWM 181054Z 21006KT 10SM CLR 23/14 A2996 RMK AO2 SLP145 T02280139
Observed Flight Rules
Jun-18 @ 10:54 UTC (34 minutes ago) Visual Flight Rules
Wind Visibility Clouds
210° at 6 knots 10 miles
  • Clear skies
Temperatures Readings
Current 23°C / 73°F
Dewpoint 14°C / 57°F
Humidity 57%
Altimeter 29.96" Hg
Pressure 1014.5 hPa
Elevation 54
METAR KLWM 181054Z 21006KT 10SM CLR 23/14 A2996 RMK AO2 SLP145 T02280139
Observed Flight Rules
Jun-18 @ 10:54 UTC
(34 minutes ago)
VFR
Wind Visibility
210° at 6 knots 10 miles
Clouds
  • Clear skies
Temperature Dewpoint
23°C / 73°F 14°C / 57°F
Humidity Altimeter Pressure
57% 29.96" Hg 1014.5 hPa